sensor_id;sensor_type;location;lat;lon;timestamp;P1;durP1;ratioP1;P2;durP2;ratioP2
9465;SDS011;4771;48.726;9.006;2024-03-22T00:01:45;8.07;;;6.60;;
9465;SDS011;4771;48.726;9.006;2024-03-22T00:04:11;9.60;;;6.20;;
9465;SDS011;4771;48.726;9.006;2024-03-22T00:06:38;12.30;;;6.32;;
9465;SDS011;4771;48.726;9.006;2024-03-22T00:09:04;10.25;;;6.13;;
9465;SDS011;4771;48.726;9.006;2024-03-22T00:11:31;8.25;;;6.03;;
9465;SDS011;4771;48.726;9.006;2024-03-22T00:13:57;8.70;;;6.47;;
9465;SDS011;4771;48.726;9.006;2024-03-22T00:16:25;7.80;;;6.40;;
9465;SDS011;4771;48.726;9.006;2024-03-22T00:18:51;7.80;;;6.25;;
9465;SDS011;4771;48.726;9.006;2024-03-22T00:21:18;9.88;;;6.45;;
9465;SDS011;4771;48.726;9.006;2024-03-22T00:23:44;8.68;;;6.38;;
9465;SDS011;4771;48.726;9.006;2024-03-22T00:26:12;8.95;;;6.85;;
9465;SDS011;4771;48.726;9.006;2024-03-22T00:28:37;9.35;;;6.53;;
9465;SDS011;4771;48.726;9.006;2024-03-22T00:31:04;8.77;;;6.60;;
9465;SDS011;4771;48.726;9.006;2024-03-22T00:33:33;10.70;;;7.28;;
9465;SDS011;4771;48.726;9.006;2024-03-22T00:35:58;10.65;;;7.25;;
9465;SDS011;4771;48.726;9.006;2024-03-22T00:38:25;8.25;;;7.32;;
9465;SDS011;4771;48.726;9.006;2024-03-22T00:40:51;11.47;;;6.97;;
9465;SDS011;4771;48.726;9.006;2024-03-22T00:43:18;10.00;;;7.35;;
9465;SDS011;4771;48.726;9.006;2024-03-22T00:45:45;9.23;;;7.00;;
9465;SDS011;4771;48.726;9.006;2024-03-22T00:48:12;9.52;;;7.10;;
9465;SDS011;4771;48.726;9.006;2024-03-22T00:50:40;10.13;;;6.75;;
9465;SDS011;4771;48.726;9.006;2024-03-22T00:53:06;11.27;;;7.70;;
9465;SDS011;4771;48.726;9.006;2024-03-22T00:55:35;9.73;;;7.38;;
9465;SDS011;4771;48.726;9.006;2024-03-22T00:58:00;9.38;;;7.35;;
9465;SDS011;4771;48.726;9.006;2024-03-22T01:00:27;10.93;;;7.57;;
9465;SDS011;4771;48.726;9.006;2024-03-22T01:02:53;11.57;;;7.88;;
9465;SDS011;4771;48.726;9.006;2024-03-22T01:05:20;11.73;;;7.87;;
9465;SDS011;4771;48.726;9.006;2024-03-22T01:07:47;10.00;;;8.10;;
9465;SDS011;4771;48.726;9.006;2024-03-22T01:10:14;11.05;;;8.18;;
9465;SDS011;4771;48.726;9.006;2024-03-22T01:12:40;10.97;;;7.90;;
9465;SDS011;4771;48.726;9.006;2024-03-22T01:15:07;10.27;;;7.72;;
9465;SDS011;4771;48.726;9.006;2024-03-22T01:17:34;10.90;;;8.17;;
9465;SDS011;4771;48.726;9.006;2024-03-22T01:20:00;9.63;;;8.13;;
9465;SDS011;4771;48.726;9.006;2024-03-22T01:22:26;9.73;;;8.03;;
9465;SDS011;4771;48.726;9.006;2024-03-22T01:24:55;9.93;;;7.77;;
9465;SDS011;4771;48.726;9.006;2024-03-22T01:27:20;10.37;;;8.63;;
9465;SDS011;4771;48.726;9.006;2024-03-22T01:29:47;11.63;;;8.60;;
9465;SDS011;4771;48.726;9.006;2024-03-22T01:32:13;12.80;;;8.27;;
9465;SDS011;4771;48.726;9.006;2024-03-22T01:34:40;15.07;;;9.05;;
9465;SDS011;4771;48.726;9.006;2024-03-22T01:37:06;17.03;;;9.73;;
9465;SDS011;4771;48.726;9.006;2024-03-22T01:39:33;12.33;;;8.77;;
9465;SDS011;4771;48.726;9.006;2024-03-22T01:42:00;13.17;;;9.03;;
9465;SDS011;4771;48.726;9.006;2024-03-22T01:44:27;12.73;;;8.52;;
9465;SDS011;4771;48.726;9.006;2024-03-22T01:46:53;12.02;;;9.20;;
9465;SDS011;4771;48.726;9.006;2024-03-22T01:49:20;11.60;;;8.90;;
9465;SDS011;4771;48.726;9.006;2024-03-22T01:51:47;10.35;;;8.63;;
9465;SDS011;4771;48.726;9.006;2024-03-22T01:54:14;12.37;;;8.70;;
9465;SDS011;4771;48.726;9.006;2024-03-22T01:56:41;13.57;;;8.53;;
9465;SDS011;4771;48.726;9.006;2024-03-22T01:59:10;10.77;;;8.60;;
9465;SDS011;4771;48.726;9.006;2024-03-22T02:01:35;15.63;;;8.90;;
9465;SDS011;4771;48.726;9.006;2024-03-22T02:04:02;12.07;;;8.32;;
9465;SDS011;4771;48.726;9.006;2024-03-22T02:06:28;10.65;;;7.53;;
9465;SDS011;4771;48.726;9.006;2024-03-22T02:08:56;9.70;;;8.00;;
9465;SDS011;4771;48.726;9.006;2024-03-22T02:11:22;16.40;;;8.57;;
9465;SDS011;4771;48.726;9.006;2024-03-22T02:13:49;12.70;;;8.57;;
9465;SDS011;4771;48.726;9.006;2024-03-22T02:16:16;14.33;;;8.63;;
9465;SDS011;4771;48.726;9.006;2024-03-22T02:18:43;11.10;;;8.10;;
9465;SDS011;4771;48.726;9.006;2024-03-22T02:21:09;10.23;;;7.90;;
9465;SDS011;4771;48.726;9.006;2024-03-22T02:23:38;9.70;;;8.03;;
9465;SDS011;4771;48.726;9.006;2024-03-22T02:26:05;12.63;;;8.33;;
9465;SDS011;4771;48.726;9.006;2024-03-22T02:28:32;10.93;;;8.53;;
9465;SDS011;4771;48.726;9.006;2024-03-22T02:30:59;12.23;;;8.50;;
9465;SDS011;4771;48.726;9.006;2024-03-22T02:33:26;10.53;;;7.63;;
9465;SDS011;4771;48.726;9.006;2024-03-22T02:35:52;10.07;;;8.00;;
9465;SDS011;4771;48.726;9.006;2024-03-22T02:38:19;10.17;;;7.70;;
9465;SDS011;4771;48.726;9.006;2024-03-22T02:40:47;10.43;;;7.77;;
9465;SDS011;4771;48.726;9.006;2024-03-22T02:43:15;10.13;;;8.33;;
9465;SDS011;4771;48.726;9.006;2024-03-22T02:45:42;9.03;;;8.03;;
9465;SDS011;4771;48.726;9.006;2024-03-22T02:48:09;12.37;;;7.50;;
9465;SDS011;4771;48.726;9.006;2024-03-22T02:50:36;10.90;;;7.90;;
9465;SDS011;4771;48.726;9.006;2024-03-22T02:53:03;11.00;;;7.90;;
9465;SDS011;4771;48.726;9.006;2024-03-22T02:55:29;11.63;;;7.93;;
9465;SDS011;4771;48.726;9.006;2024-03-22T02:57:57;10.90;;;8.30;;
9465;SDS011;4771;48.726;9.006;2024-03-22T03:00:23;10.13;;;7.30;;
9465;SDS011;4771;48.726;9.006;2024-03-22T03:02:50;11.37;;;8.20;;
9465;SDS011;4771;48.726;9.006;2024-03-22T03:05:16;10.47;;;7.40;;
9465;SDS011;4771;48.726;9.006;2024-03-22T03:07:43;13.90;;;8.03;;
9465;SDS011;4771;48.726;9.006;2024-03-22T03:10:09;13.50;;;8.20;;
9465;SDS011;4771;48.726;9.006;2024-03-22T03:12:36;9.70;;;7.83;;
9465;SDS011;4771;48.726;9.006;2024-03-22T03:15:03;12.07;;;7.70;;
9465;SDS011;4771;48.726;9.006;2024-03-22T03:17:30;11.23;;;8.50;;
9465;SDS011;4771;48.726;9.006;2024-03-22T03:19:56;9.63;;;7.77;;
9465;SDS011;4771;48.726;9.006;2024-03-22T03:22:23;9.13;;;7.60;;
9465;SDS011;4771;48.726;9.006;2024-03-22T03:24:49;10.93;;;7.67;;
9465;SDS011;4771;48.726;9.006;2024-03-22T03:27:16;10.87;;;7.97;;
9465;SDS011;4771;48.726;9.006;2024-03-22T03:29:42;10.83;;;7.43;;
9465;SDS011;4771;48.726;9.006;2024-03-22T03:32:10;10.43;;;8.20;;
9465;SDS011;4771;48.726;9.006;2024-03-22T03:34:36;11.80;;;8.40;;
9465;SDS011;4771;48.726;9.006;2024-03-22T03:37:03;11.87;;;7.80;;
9465;SDS011;4771;48.726;9.006;2024-03-22T03:39:29;11.70;;;8.27;;
9465;SDS011;4771;48.726;9.006;2024-03-22T03:41:55;10.77;;;7.80;;
9465;SDS011;4771;48.726;9.006;2024-03-22T03:44:21;11.83;;;7.70;;
9465;SDS011;4771;48.726;9.006;2024-03-22T03:46:48;12.03;;;7.93;;
9465;SDS011;4771;48.726;9.006;2024-03-22T03:49:15;11.63;;;8.60;;
9465;SDS011;4771;48.726;9.006;2024-03-22T03:51:42;10.53;;;8.47;;
9465;SDS011;4771;48.726;9.006;2024-03-22T03:54:08;12.20;;;8.37;;
9465;SDS011;4771;48.726;9.006;2024-03-22T03:56:35;12.40;;;8.73;;
9465;SDS011;4771;48.726;9.006;2024-03-22T03:59:01;9.95;;;8.05;;
9465;SDS011;4771;48.726;9.006;2024-03-22T04:01:27;13.17;;;8.90;;
9465;SDS011;4771;48.726;9.006;2024-03-22T04:03:53;13.33;;;8.37;;
9465;SDS011;4771;48.726;9.006;2024-03-22T04:06:21;11.23;;;7.97;;
9465;SDS011;4771;48.726;9.006;2024-03-22T04:08:48;11.63;;;8.30;;
9465;SDS011;4771;48.726;9.006;2024-03-22T04:11:14;10.80;;;8.10;;
9465;SDS011;4771;48.726;9.006;2024-03-22T04:13:40;10.53;;;8.47;;
9465;SDS011;4771;48.726;9.006;2024-03-22T04:16:07;11.27;;;7.83;;
9465;SDS011;4771;48.726;9.006;2024-03-22T04:18:33;11.23;;;7.83;;
9465;SDS011;4771;48.726;9.006;2024-03-22T04:21:00;10.70;;;8.17;;
9465;SDS011;4771;48.726;9.006;2024-03-22T04:23:28;10.57;;;8.07;;
9465;SDS011;4771;48.726;9.006;2024-03-22T04:25:54;11.50;;;8.50;;
9465;SDS011;4771;48.726;9.006;2024-03-22T04:28:21;12.27;;;8.45;;
9465;SDS011;4771;48.726;9.006;2024-03-22T04:30:59;9.63;;;7.73;;
9465;SDS011;4771;48.726;9.006;2024-03-22T04:33:26;9.33;;;7.87;;
9465;SDS011;4771;48.726;9.006;2024-03-22T04:35:53;11.65;;;8.43;;
9465;SDS011;4771;48.726;9.006;2024-03-22T04:38:19;11.07;;;8.20;;
9465;SDS011;4771;48.726;9.006;2024-03-22T04:40:47;11.07;;;8.18;;
9465;SDS011;4771;48.726;9.006;2024-03-22T04:43:14;12.07;;;7.77;;
9465;SDS011;4771;48.726;9.006;2024-03-22T04:45:41;9.70;;;8.10;;
9465;SDS011;4771;48.726;9.006;2024-03-22T04:48:08;10.23;;;8.20;;
9465;SDS011;4771;48.726;9.006;2024-03-22T04:50:34;10.50;;;7.73;;
9465;SDS011;4771;48.726;9.006;2024-03-22T04:53:01;10.87;;;7.47;;
9465;SDS011;4771;48.726;9.006;2024-03-22T04:55:27;9.63;;;7.43;;
9465;SDS011;4771;48.726;9.006;2024-03-22T04:57:56;12.60;;;8.43;;
9465;SDS011;4771;48.726;9.006;2024-03-22T05:00:21;10.60;;;8.35;;
9465;SDS011;4771;48.726;9.006;2024-03-22T05:02:50;14.23;;;8.13;;
9465;SDS011;4771;48.726;9.006;2024-03-22T05:05:16;9.03;;;7.87;;
9465;SDS011;4771;48.726;9.006;2024-03-22T05:07:42;10.57;;;7.65;;
9465;SDS011;4771;48.726;9.006;2024-03-22T05:10:08;10.47;;;7.60;;
9465;SDS011;4771;48.726;9.006;2024-03-22T05:12:36;11.33;;;8.10;;
9465;SDS011;4771;48.726;9.006;2024-03-22T05:15:04;13.52;;;8.50;;
9465;SDS011;4771;48.726;9.006;2024-03-22T05:17:31;10.95;;;8.18;;
9465;SDS011;4771;48.726;9.006;2024-03-22T05:19:58;12.30;;;8.97;;
9465;SDS011;4771;48.726;9.006;2024-03-22T05:22:25;12.38;;;8.50;;
9465;SDS011;4771;48.726;9.006;2024-03-22T05:24:51;10.00;;;7.83;;
9465;SDS011;4771;48.726;9.006;2024-03-22T05:27:18;11.07;;;7.57;;
9465;SDS011;4771;48.726;9.006;2024-03-22T05:29:44;11.17;;;7.97;;
9465;SDS011;4771;48.726;9.006;2024-03-22T05:32:13;12.50;;;8.00;;
9465;SDS011;4771;48.726;9.006;2024-03-22T05:34:38;9.90;;;8.05;;
9465;SDS011;4771;48.726;9.006;2024-03-22T05:37:05;8.63;;;7.40;;
9465;SDS011;4771;48.726;9.006;2024-03-22T05:39:31;12.77;;;8.05;;
9465;SDS011;4771;48.726;9.006;2024-03-22T05:41:58;9.38;;;7.47;;
9465;SDS011;4771;48.726;9.006;2024-03-22T05:44:24;11.02;;;7.63;;
9465;SDS011;4771;48.726;9.006;2024-03-22T05:46:51;12.10;;;7.37;;
9465;SDS011;4771;48.726;9.006;2024-03-22T05:49:18;9.98;;;7.45;;
9465;SDS011;4771;48.726;9.006;2024-03-22T05:51:45;11.50;;;7.63;;
9465;SDS011;4771;48.726;9.006;2024-03-22T05:54:11;9.82;;;7.38;;
9465;SDS011;4771;48.726;9.006;2024-03-22T05:56:38;11.73;;;7.60;;
9465;SDS011;4771;48.726;9.006;2024-03-22T05:59:04;14.35;;;8.10;;
9465;SDS011;4771;48.726;9.006;2024-03-22T06:01:31;11.83;;;7.90;;
9465;SDS011;4771;48.726;9.006;2024-03-22T06:03:57;10.35;;;6.97;;
9465;SDS011;4771;48.726;9.006;2024-03-22T06:06:26;14.93;;;7.93;;
9465;SDS011;4771;48.726;9.006;2024-03-22T06:08:51;10.68;;;7.50;;
9465;SDS011;4771;48.726;9.006;2024-03-22T06:11:19;17.10;;;7.82;;
9465;SDS011;4771;48.726;9.006;2024-03-22T06:13:46;10.03;;;7.40;;
9465;SDS011;4771;48.726;9.006;2024-03-22T06:16:13;12.97;;;8.50;;
9465;SDS011;4771;48.726;9.006;2024-03-22T06:18:39;11.32;;;7.82;;
9465;SDS011;4771;48.726;9.006;2024-03-22T06:21:06;19.73;;;11.95;;
9465;SDS011;4771;48.726;9.006;2024-03-22T06:23:33;19.35;;;13.10;;
9465;SDS011;4771;48.726;9.006;2024-03-22T06:26:00;16.08;;;11.70;;
9465;SDS011;4771;48.726;9.006;2024-03-22T06:28:27;12.00;;;9.45;;
9465;SDS011;4771;48.726;9.006;2024-03-22T06:30:54;11.93;;;8.32;;
9465;SDS011;4771;48.726;9.006;2024-03-22T06:33:20;16.15;;;7.18;;
9465;SDS011;4771;48.726;9.006;2024-03-22T06:35:47;8.60;;;7.43;;
9465;SDS011;4771;48.726;9.006;2024-03-22T06:38:13;11.93;;;6.87;;
9465;SDS011;4771;48.726;9.006;2024-03-22T06:40:41;9.73;;;6.78;;
9465;SDS011;4771;48.726;9.006;2024-03-22T06:43:07;11.90;;;7.43;;
9465;SDS011;4771;48.726;9.006;2024-03-22T06:45:35;10.60;;;7.88;;
9465;SDS011;4771;48.726;9.006;2024-03-22T06:48:01;16.88;;;8.57;;
9465;SDS011;4771;48.726;9.006;2024-03-22T06:50:28;12.73;;;8.07;;
9465;SDS011;4771;48.726;9.006;2024-03-22T06:52:54;11.32;;;7.85;;
9465;SDS011;4771;48.726;9.006;2024-03-22T06:55:21;11.50;;;8.18;;
9465;SDS011;4771;48.726;9.006;2024-03-22T06:57:48;10.68;;;7.80;;
9465;SDS011;4771;48.726;9.006;2024-03-22T07:00:16;10.13;;;7.80;;
9465;SDS011;4771;48.726;9.006;2024-03-22T07:02:42;10.95;;;8.00;;
9465;SDS011;4771;48.726;9.006;2024-03-22T07:05:10;11.52;;;7.45;;
9465;SDS011;4771;48.726;9.006;2024-03-22T07:07:36;9.48;;;6.88;;
9465;SDS011;4771;48.726;9.006;2024-03-22T07:10:04;12.68;;;8.07;;
9465;SDS011;4771;48.726;9.006;2024-03-22T07:12:30;11.35;;;8.02;;
9465;SDS011;4771;48.726;9.006;2024-03-22T07:14:59;15.48;;;8.93;;
9465;SDS011;4771;48.726;9.006;2024-03-22T07:17:25;10.75;;;7.72;;
9465;SDS011;4771;48.726;9.006;2024-03-22T07:19:52;11.35;;;8.18;;
9465;SDS011;4771;48.726;9.006;2024-03-22T07:22:18;11.45;;;7.70;;
9465;SDS011;4771;48.726;9.006;2024-03-22T07:24:46;11.73;;;7.68;;
9465;SDS011;4771;48.726;9.006;2024-03-22T07:27:12;12.85;;;8.13;;
9465;SDS011;4771;48.726;9.006;2024-03-22T07:29:40;12.15;;;8.65;;
9465;SDS011;4771;48.726;9.006;2024-03-22T07:32:07;13.40;;;8.40;;
9465;SDS011;4771;48.726;9.006;2024-03-22T07:34:34;12.27;;;8.45;;
9465;SDS011;4771;48.726;9.006;2024-03-22T07:37:00;11.95;;;8.40;;
9465;SDS011;4771;48.726;9.006;2024-03-22T07:39:29;13.43;;;9.43;;
9465;SDS011;4771;48.726;9.006;2024-03-22T07:41:55;11.38;;;8.48;;
9465;SDS011;4771;48.726;9.006;2024-03-22T07:44:21;15.07;;;8.63;;
9465;SDS011;4771;48.726;9.006;2024-03-22T07:46:49;11.75;;;8.85;;
9465;SDS011;4771;48.726;9.006;2024-03-22T07:49:17;16.23;;;9.02;;
9465;SDS011;4771;48.726;9.006;2024-03-22T07:51:43;21.65;;;9.65;;
9465;SDS011;4771;48.726;9.006;2024-03-22T07:54:10;14.20;;;8.88;;
9465;SDS011;4771;48.726;9.006;2024-03-22T07:56:36;12.43;;;9.00;;
9465;SDS011;4771;48.726;9.006;2024-03-22T07:59:03;12.93;;;8.73;;
9465;SDS011;4771;48.726;9.006;2024-03-22T08:01:30;14.25;;;8.70;;
9465;SDS011;4771;48.726;9.006;2024-03-22T08:03:56;14.95;;;8.70;;
9465;SDS011;4771;48.726;9.006;2024-03-22T08:06:24;16.20;;;8.05;;
9465;SDS011;4771;48.726;9.006;2024-03-22T08:08:51;15.95;;;8.65;;
9465;SDS011;4771;48.726;9.006;2024-03-22T08:11:16;12.52;;;8.07;;
9465;SDS011;4771;48.726;9.006;2024-03-22T08:13:43;10.55;;;7.38;;
9465;SDS011;4771;48.726;9.006;2024-03-22T08:16:09;15.02;;;7.97;;
9465;SDS011;4771;48.726;9.006;2024-03-22T08:18:36;18.02;;;8.77;;
9465;SDS011;4771;48.726;9.006;2024-03-22T08:21:02;13.50;;;7.65;;
9465;SDS011;4771;48.726;9.006;2024-03-22T08:23:31;12.98;;;7.88;;
9465;SDS011;4771;48.726;9.006;2024-03-22T08:25:57;11.10;;;7.82;;
9465;SDS011;4771;48.726;9.006;2024-03-22T08:28:23;8.93;;;7.00;;
9465;SDS011;4771;48.726;9.006;2024-03-22T08:30:49;10.90;;;7.38;;
9465;SDS011;4771;48.726;9.006;2024-03-22T08:33:17;11.95;;;6.70;;
9465;SDS011;4771;48.726;9.006;2024-03-22T08:35:43;12.35;;;6.82;;
9465;SDS011;4771;48.726;9.006;2024-03-22T08:38:10;11.48;;;7.40;;
9465;SDS011;4771;48.726;9.006;2024-03-22T08:40:41;13.43;;;7.28;;
9465;SDS011;4771;48.726;9.006;2024-03-22T08:43:08;11.30;;;7.72;;
9465;SDS011;4771;48.726;9.006;2024-03-22T08:45:33;9.00;;;6.95;;
9465;SDS011;4771;48.726;9.006;2024-03-22T08:48:00;16.13;;;7.38;;
9465;SDS011;4771;48.726;9.006;2024-03-22T08:50:26;9.35;;;6.95;;
9465;SDS011;4771;48.726;9.006;2024-03-22T08:52:53;10.57;;;7.10;;
9465;SDS011;4771;48.726;9.006;2024-03-22T08:55:19;10.85;;;6.32;;
9465;SDS011;4771;48.726;9.006;2024-03-22T08:57:47;9.75;;;7.13;;
9465;SDS011;4771;48.726;9.006;2024-03-22T09:00:13;9.60;;;6.30;;
9465;SDS011;4771;48.726;9.006;2024-03-22T09:02:41;7.95;;;5.93;;
9465;SDS011;4771;48.726;9.006;2024-03-22T09:05:06;7.15;;;6.22;;
9465;SDS011;4771;48.726;9.006;2024-03-22T09:07:34;10.70;;;6.38;;
9465;SDS011;4771;48.726;9.006;2024-03-22T09:10:00;8.45;;;6.55;;
9465;SDS011;4771;48.726;9.006;2024-03-22T09:12:27;7.30;;;5.88;;
9465;SDS011;4771;48.726;9.006;2024-03-22T09:14:54;7.03;;;5.55;;
9465;SDS011;4771;48.726;9.006;2024-03-22T09:17:21;10.80;;;5.85;;
9465;SDS011;4771;48.726;9.006;2024-03-22T09:19:47;8.18;;;5.43;;
9465;SDS011;4771;48.726;9.006;2024-03-22T09:22:14;9.32;;;5.65;;
9465;SDS011;4771;48.726;9.006;2024-03-22T09:24:40;7.30;;;5.10;;
9465;SDS011;4771;48.726;9.006;2024-03-22T09:27:07;7.55;;;5.15;;
9465;SDS011;4771;48.726;9.006;2024-03-22T09:29:35;8.75;;;5.28;;
9465;SDS011;4771;48.726;9.006;2024-03-22T09:32:03;9.77;;;5.55;;
9465;SDS011;4771;48.726;9.006;2024-03-22T09:34:29;7.40;;;5.57;;
9465;SDS011;4771;48.726;9.006;2024-03-22T09:36:56;8.27;;;5.57;;
9465;SDS011;4771;48.726;9.006;2024-03-22T09:39:22;9.75;;;5.63;;
9465;SDS011;4771;48.726;9.006;2024-03-22T09:41:50;14.50;;;5.45;;
9465;SDS011;4771;48.726;9.006;2024-03-22T09:44:18;6.95;;;5.82;;
9465;SDS011;4771;48.726;9.006;2024-03-22T09:46:46;6.72;;;5.60;;
9465;SDS011;4771;48.726;9.006;2024-03-22T09:49:13;10.30;;;5.38;;
9465;SDS011;4771;48.726;9.006;2024-03-22T09:51:41;9.82;;;5.90;;
9465;SDS011;4771;48.726;9.006;2024-03-22T09:54:09;7.85;;;5.80;;
9465;SDS011;4771;48.726;9.006;2024-03-22T09:56:36;9.60;;;5.03;;
9465;SDS011;4771;48.726;9.006;2024-03-22T09:59:03;7.07;;;5.13;;
9465;SDS011;4771;48.726;9.006;2024-03-22T10:01:31;11.60;;;5.45;;
9465;SDS011;4771;48.726;9.006;2024-03-22T10:03:59;8.05;;;4.97;;
9465;SDS011;4771;48.726;9.006;2024-03-22T10:06:27;8.35;;;4.30;;
9465;SDS011;4771;48.726;9.006;2024-03-22T10:08:54;7.03;;;5.13;;
9465;SDS011;4771;48.726;9.006;2024-03-22T10:11:25;5.90;;;3.55;;
9465;SDS011;4771;48.726;9.006;2024-03-22T10:13:51;6.00;;;3.80;;
9465;SDS011;4771;48.726;9.006;2024-03-22T10:16:20;6.05;;;3.67;;
9465;SDS011;4771;48.726;9.006;2024-03-22T10:18:46;4.97;;;3.92;;
9465;SDS011;4771;48.726;9.006;2024-03-22T10:21:16;4.90;;;3.40;;
9465;SDS011;4771;48.726;9.006;2024-03-22T10:23:44;5.28;;;3.25;;
9465;SDS011;4771;48.726;9.006;2024-03-22T10:26:13;6.22;;;3.45;;
9465;SDS011;4771;48.726;9.006;2024-03-22T10:28:43;6.13;;;3.35;;
9465;SDS011;4771;48.726;9.006;2024-03-22T10:31:11;4.72;;;3.55;;
9465;SDS011;4771;48.726;9.006;2024-03-22T10:33:37;7.57;;;3.40;;
9465;SDS011;4771;48.726;9.006;2024-03-22T10:36:06;6.47;;;3.33;;
9465;SDS011;4771;48.726;9.006;2024-03-22T10:38:33;4.45;;;3.65;;
9465;SDS011;4771;48.726;9.006;2024-03-22T10:41:03;5.00;;;3.60;;
9465;SDS011;4771;48.726;9.006;2024-03-22T10:43:30;5.55;;;3.83;;
9465;SDS011;4771;48.726;9.006;2024-03-22T10:46:00;5.60;;;3.40;;
9465;SDS011;4771;48.726;9.006;2024-03-22T10:48:29;6.78;;;3.63;;
9465;SDS011;4771;48.726;9.006;2024-03-22T10:50:59;4.97;;;3.15;;
9465;SDS011;4771;48.726;9.006;2024-03-22T10:53:26;7.97;;;3.08;;
9465;SDS011;4771;48.726;9.006;2024-03-22T10:55:54;5.47;;;3.42;;
9465;SDS011;4771;48.726;9.006;2024-03-22T10:58:26;5.50;;;3.00;;
9465;SDS011;4771;48.726;9.006;2024-03-22T11:00:53;7.68;;;3.35;;
9465;SDS011;4771;48.726;9.006;2024-03-22T11:03:21;5.80;;;3.05;;
9465;SDS011;4771;48.726;9.006;2024-03-22T11:05:50;3.72;;;2.85;;
9465;SDS011;4771;48.726;9.006;2024-03-22T11:08:23;4.30;;;2.97;;
9465;SDS011;4771;48.726;9.006;2024-03-22T11:10:51;4.28;;;2.88;;
9465;SDS011;4771;48.726;9.006;2024-03-22T11:13:17;4.63;;;2.72;;
9465;SDS011;4771;48.726;9.006;2024-03-22T11:15:46;3.15;;;2.55;;
9465;SDS011;4771;48.726;9.006;2024-03-22T11:18:12;3.63;;;2.60;;
9465;SDS011;4771;48.726;9.006;2024-03-22T11:20:40;5.53;;;2.80;;
9465;SDS011;4771;48.726;9.006;2024-03-22T11:23:07;4.35;;;2.92;;
9465;SDS011;4771;48.726;9.006;2024-03-22T11:25:35;4.32;;;2.90;;
9465;SDS011;4771;48.726;9.006;2024-03-22T11:28:02;4.75;;;2.65;;
9465;SDS011;4771;48.726;9.006;2024-03-22T11:30:28;4.32;;;2.38;;
9465;SDS011;4771;48.726;9.006;2024-03-22T11:33:00;5.75;;;2.78;;
9465;SDS011;4771;48.726;9.006;2024-03-22T11:35:26;6.95;;;2.78;;
9465;SDS011;4771;48.726;9.006;2024-03-22T11:37:53;3.97;;;2.67;;
9465;SDS011;4771;48.726;9.006;2024-03-22T11:40:19;3.88;;;2.70;;
9465;SDS011;4771;48.726;9.006;2024-03-22T11:42:47;4.72;;;2.42;;
9465;SDS011;4771;48.726;9.006;2024-03-22T11:45:17;3.38;;;2.40;;
9465;SDS011;4771;48.726;9.006;2024-03-22T11:47:45;3.92;;;2.65;;
9465;SDS011;4771;48.726;9.006;2024-03-22T11:50:14;3.10;;;2.50;;
9465;SDS011;4771;48.726;9.006;2024-03-22T11:52:41;2.95;;;2.58;;
9465;SDS011;4771;48.726;9.006;2024-03-22T11:55:09;4.35;;;2.28;;
9465;SDS011;4771;48.726;9.006;2024-03-22T11:57:36;4.60;;;2.38;;
9465;SDS011;4771;48.726;9.006;2024-03-22T12:00:03;5.00;;;2.50;;
9465;SDS011;4771;48.726;9.006;2024-03-22T12:02:34;4.50;;;2.20;;
9465;SDS011;4771;48.726;9.006;2024-03-22T12:05:01;3.38;;;2.38;;
9465;SDS011;4771;48.726;9.006;2024-03-22T12:07:29;3.25;;;2.20;;
9465;SDS011;4771;48.726;9.006;2024-03-22T12:09:56;3.97;;;2.28;;
9465;SDS011;4771;48.726;9.006;2024-03-22T12:12:22;3.15;;;2.38;;
9465;SDS011;4771;48.726;9.006;2024-03-22T12:14:49;4.18;;;2.40;;
9465;SDS011;4771;48.726;9.006;2024-03-22T12:17:16;6.63;;;2.35;;
9465;SDS011;4771;48.726;9.006;2024-03-22T12:19:42;3.45;;;2.42;;
9465;SDS011;4771;48.726;9.006;2024-03-22T12:22:09;3.33;;;2.30;;
9465;SDS011;4771;48.726;9.006;2024-03-22T12:24:37;2.47;;;2.10;;
9465;SDS011;4771;48.726;9.006;2024-03-22T12:27:04;3.80;;;2.22;;
9465;SDS011;4771;48.726;9.006;2024-03-22T12:29:31;4.20;;;2.28;;
9465;SDS011;4771;48.726;9.006;2024-03-22T12:31:59;4.47;;;2.40;;
9465;SDS011;4771;48.726;9.006;2024-03-22T12:34:26;6.00;;;2.20;;
9465;SDS011;4771;48.726;9.006;2024-03-22T12:36:54;4.45;;;2.30;;
9465;SDS011;4771;48.726;9.006;2024-03-22T12:39:20;4.75;;;3.00;;
9465;SDS011;4771;48.726;9.006;2024-03-22T12:41:49;5.18;;;2.80;;
9465;SDS011;4771;48.726;9.006;2024-03-22T12:44:15;5.53;;;2.38;;
9465;SDS011;4771;48.726;9.006;2024-03-22T12:46:42;4.43;;;2.65;;
9465;SDS011;4771;48.726;9.006;2024-03-22T12:49:09;5.10;;;2.33;;
9465;SDS011;4771;48.726;9.006;2024-03-22T12:51:36;4.97;;;2.85;;
9465;SDS011;4771;48.726;9.006;2024-03-22T12:54:02;3.58;;;2.47;;
9465;SDS011;4771;48.726;9.006;2024-03-22T12:56:30;3.30;;;2.70;;
9465;SDS011;4771;48.726;9.006;2024-03-22T12:58:58;3.42;;;3.10;;
9465;SDS011;4771;48.726;9.006;2024-03-22T13:01:25;4.47;;;2.97;;
9465;SDS011;4771;48.726;9.006;2024-03-22T13:03:51;4.85;;;3.47;;
9465;SDS011;4771;48.726;9.006;2024-03-22T13:06:18;6.13;;;3.13;;
9465;SDS011;4771;48.726;9.006;2024-03-22T13:08:44;4.00;;;3.25;;
9465;SDS011;4771;48.726;9.006;2024-03-22T13:11:11;5.97;;;3.45;;
9465;SDS011;4771;48.726;9.006;2024-03-22T13:13:38;7.18;;;3.20;;
9465;SDS011;4771;48.726;9.006;2024-03-22T13:16:06;5.20;;;2.83;;
9465;SDS011;4771;48.726;9.006;2024-03-22T13:18:34;5.03;;;2.83;;
9465;SDS011;4771;48.726;9.006;2024-03-22T13:21:01;4.10;;;2.78;;
9465;SDS011;4771;48.726;9.006;2024-03-22T13:23:28;5.28;;;2.85;;
9465;SDS011;4771;48.726;9.006;2024-03-22T13:25:55;5.95;;;2.53;;
9465;SDS011;4771;48.726;9.006;2024-03-22T13:28:26;4.78;;;2.70;;
9465;SDS011;4771;48.726;9.006;2024-03-22T13:30:58;3.85;;;2.40;;
9465;SDS011;4771;48.726;9.006;2024-03-22T13:33:26;4.10;;;2.40;;
9465;SDS011;4771;48.726;9.006;2024-03-22T13:35:53;3.58;;;2.38;;
9465;SDS011;4771;48.726;9.006;2024-03-22T13:38:19;3.90;;;2.60;;
9465;SDS011;4771;48.726;9.006;2024-03-22T13:40:52;4.97;;;2.75;;
9465;SDS011;4771;48.726;9.006;2024-03-22T13:43:18;4.18;;;2.40;;
9465;SDS011;4771;48.726;9.006;2024-03-22T13:45:45;3.67;;;2.60;;
9465;SDS011;4771;48.726;9.006;2024-03-22T13:48:14;3.15;;;2.30;;
9465;SDS011;4771;48.726;9.006;2024-03-22T13:50:42;2.92;;;2.05;;
9465;SDS011;4771;48.726;9.006;2024-03-22T13:53:08;2.97;;;2.40;;
9465;SDS011;4771;48.726;9.006;2024-03-22T13:55:35;2.78;;;2.10;;
9465;SDS011;4771;48.726;9.006;2024-03-22T13:58:01;3.33;;;2.30;;
9465;SDS011;4771;48.726;9.006;2024-03-22T14:00:28;4.53;;;2.20;;
9465;SDS011;4771;48.726;9.006;2024-03-22T14:02:54;8.25;;;2.53;;
9465;SDS011;4771;48.726;9.006;2024-03-22T14:05:21;3.60;;;2.60;;
9465;SDS011;4771;48.726;9.006;2024-03-22T14:07:50;3.00;;;2.30;;
9465;SDS011;4771;48.726;9.006;2024-03-22T14:10:17;3.00;;;2.05;;
9465;SDS011;4771;48.726;9.006;2024-03-22T14:12:45;4.22;;;2.38;;
9465;SDS011;4771;48.726;9.006;2024-03-22T14:15:12;5.43;;;2.33;;
9465;SDS011;4771;48.726;9.006;2024-03-22T14:17:38;3.85;;;2.20;;
9465;SDS011;4771;48.726;9.006;2024-03-22T14:20:05;2.75;;;1.80;;
9465;SDS011;4771;48.726;9.006;2024-03-22T14:22:37;3.17;;;2.05;;
9465;SDS011;4771;48.726;9.006;2024-03-22T14:25:07;4.18;;;1.90;;
9465;SDS011;4771;48.726;9.006;2024-03-22T14:27:33;2.97;;;1.92;;
9465;SDS011;4771;48.726;9.006;2024-03-22T14:30:00;3.88;;;2.05;;
9465;SDS011;4771;48.726;9.006;2024-03-22T14:32:30;2.72;;;1.80;;
9465;SDS011;4771;48.726;9.006;2024-03-22T14:34:57;3.88;;;2.50;;
9465;SDS011;4771;48.726;9.006;2024-03-22T14:37:23;3.78;;;2.30;;
9465;SDS011;4771;48.726;9.006;2024-03-22T14:39:50;3.33;;;2.40;;
9465;SDS011;4771;48.726;9.006;2024-03-22T14:42:17;2.60;;;2.00;;
9465;SDS011;4771;48.726;9.006;2024-03-22T14:44:44;4.18;;;1.95;;
9465;SDS011;4771;48.726;9.006;2024-03-22T14:47:10;2.50;;;1.40;;
9465;SDS011;4771;48.726;9.006;2024-03-22T14:49:37;2.00;;;1.58;;
9465;SDS011;4771;48.726;9.006;2024-03-22T14:52:03;2.35;;;1.40;;
9465;SDS011;4771;48.726;9.006;2024-03-22T14:54:30;1.98;;;1.30;;
9465;SDS011;4771;48.726;9.006;2024-03-22T14:56:56;2.63;;;1.40;;
9465;SDS011;4771;48.726;9.006;2024-03-22T14:59:24;1.40;;;1.20;;
9465;SDS011;4771;48.726;9.006;2024-03-22T15:01:52;3.10;;;1.08;;
9465;SDS011;4771;48.726;9.006;2024-03-22T15:04:20;1.45;;;1.33;;
9465;SDS011;4771;48.726;9.006;2024-03-22T15:06:46;1.85;;;1.17;;